sensor_id;sensor_type;location;lat;lon;timestamp;P1;durP1;ratioP1;P2;durP2;ratioP2
26080;SDS011;13991;51.174;4.438;2023-06-10T00:01:01;11.23;;;5.47;;
26080;SDS011;13991;51.174;4.438;2023-06-10T00:03:30;17.15;;;6.05;;
26080;SDS011;13991;51.174;4.438;2023-06-10T00:05:57;10.30;;;5.47;;
26080;SDS011;13991;51.174;4.438;2023-06-10T00:08:23;10.97;;;6.30;;
26080;SDS011;13991;51.174;4.438;2023-06-10T00:10:49;20.13;;;6.55;;
26080;SDS011;13991;51.174;4.438;2023-06-10T00:13:15;10.18;;;5.80;;
26080;SDS011;13991;51.174;4.438;2023-06-10T00:15:41;9.27;;;6.03;;
26080;SDS011;13991;51.174;4.438;2023-06-10T00:18:07;15.20;;;6.47;;
26080;SDS011;13991;51.174;4.438;2023-06-10T00:20:35;10.10;;;6.13;;
26080;SDS011;13991;51.174;4.438;2023-06-10T00:23:02;11.40;;;5.90;;
26080;SDS011;13991;51.174;4.438;2023-06-10T00:25:34;13.10;;;6.37;;
26080;SDS011;13991;51.174;4.438;2023-06-10T00:28:00;11.93;;;6.60;;
26080;SDS011;13991;51.174;4.438;2023-06-10T00:30:28;12.97;;;5.87;;
26080;SDS011;13991;51.174;4.438;2023-06-10T00:32:54;13.53;;;6.03;;
26080;SDS011;13991;51.174;4.438;2023-06-10T00:35:28;14.07;;;6.47;;
26080;SDS011;13991;51.174;4.438;2023-06-10T00:37:54;9.97;;;5.93;;
26080;SDS011;13991;51.174;4.438;2023-06-10T00:40:23;12.17;;;5.60;;
26080;SDS011;13991;51.174;4.438;2023-06-10T00:42:48;21.97;;;6.50;;
26080;SDS011;13991;51.174;4.438;2023-06-10T00:45:34;17.57;;;5.97;;
26080;SDS011;13991;51.174;4.438;2023-06-10T00:48:03;11.70;;;5.60;;
26080;SDS011;13991;51.174;4.438;2023-06-10T00:50:33;17.60;;;5.97;;
26080;SDS011;13991;51.174;4.438;2023-06-10T00:52:59;13.60;;;6.10;;
26080;SDS011;13991;51.174;4.438;2023-06-10T00:55:26;15.67;;;6.40;;
26080;SDS011;13991;51.174;4.438;2023-06-10T00:57:52;12.10;;;5.73;;
26080;SDS011;13991;51.174;4.438;2023-06-10T01:00:25;13.17;;;5.57;;
26080;SDS011;13991;51.174;4.438;2023-06-10T01:02:53;24.57;;;6.10;;
26080;SDS011;13991;51.174;4.438;2023-06-10T01:05:23;10.20;;;6.47;;
26080;SDS011;13991;51.174;4.438;2023-06-10T01:10:54;13.73;;;5.87;;
26080;SDS011;13991;51.174;4.438;2023-06-10T01:13:27;13.43;;;6.33;;
26080;SDS011;13991;51.174;4.438;2023-06-10T01:16:01;16.87;;;6.60;;
26080;SDS011;13991;51.174;4.438;2023-06-10T01:18:36;16.37;;;6.67;;
26080;SDS011;13991;51.174;4.438;2023-06-10T01:21:03;15.07;;;6.50;;
26080;SDS011;13991;51.174;4.438;2023-06-10T01:23:32;15.60;;;6.50;;
26080;SDS011;13991;51.174;4.438;2023-06-10T01:26:15;22.03;;;6.60;;
26080;SDS011;13991;51.174;4.438;2023-06-10T01:28:55;15.20;;;7.00;;
26080;SDS011;13991;51.174;4.438;2023-06-10T01:31:43;10.40;;;6.80;;
26080;SDS011;13991;51.174;4.438;2023-06-10T01:34:19;11.83;;;6.37;;
26080;SDS011;13991;51.174;4.438;2023-06-10T01:36:51;14.40;;;6.03;;
26080;SDS011;13991;51.174;4.438;2023-06-10T01:39:22;11.47;;;7.47;;
26080;SDS011;13991;51.174;4.438;2023-06-10T01:41:55;14.90;;;7.30;;
26080;SDS011;13991;51.174;4.438;2023-06-10T01:44:22;11.97;;;6.33;;
26080;SDS011;13991;51.174;4.438;2023-06-10T01:46:48;14.93;;;6.87;;
26080;SDS011;13991;51.174;4.438;2023-06-10T01:49:17;22.50;;;7.37;;
26080;SDS011;13991;51.174;4.438;2023-06-10T01:51:43;16.03;;;6.80;;
26080;SDS011;13991;51.174;4.438;2023-06-10T01:54:08;12.67;;;6.60;;
26080;SDS011;13991;51.174;4.438;2023-06-10T01:56:34;8.73;;;6.27;;
26080;SDS011;13991;51.174;4.438;2023-06-10T01:59:00;15.27;;;7.03;;
26080;SDS011;13991;51.174;4.438;2023-06-10T02:01:35;14.17;;;7.10;;
26080;SDS011;13991;51.174;4.438;2023-06-10T02:04:01;19.47;;;7.80;;
26080;SDS011;13991;51.174;4.438;2023-06-10T02:06:27;14.80;;;7.80;;
26080;SDS011;13991;51.174;4.438;2023-06-10T02:08:53;13.43;;;6.87;;
26080;SDS011;13991;51.174;4.438;2023-06-10T02:11:22;13.53;;;6.43;;
26080;SDS011;13991;51.174;4.438;2023-06-10T02:13:47;14.20;;;6.80;;
26080;SDS011;13991;51.174;4.438;2023-06-10T02:16:13;12.57;;;7.27;;
26080;SDS011;13991;51.174;4.438;2023-06-10T02:18:41;12.83;;;6.47;;
26080;SDS011;13991;51.174;4.438;2023-06-10T02:21:14;9.13;;;6.43;;
26080;SDS011;13991;51.174;4.438;2023-06-10T02:23:40;14.80;;;7.33;;
26080;SDS011;13991;51.174;4.438;2023-06-10T02:26:08;12.50;;;7.23;;
26080;SDS011;13991;51.174;4.438;2023-06-10T02:31:56;18.27;;;7.13;;
26080;SDS011;13991;51.174;4.438;2023-06-10T02:34:21;15.67;;;7.93;;
26080;SDS011;13991;51.174;4.438;2023-06-10T02:36:52;11.30;;;6.80;;
26080;SDS011;13991;51.174;4.438;2023-06-10T02:39:32;12.20;;;7.33;;
26080;SDS011;13991;51.174;4.438;2023-06-10T02:41:57;18.50;;;8.53;;
26080;SDS011;13991;51.174;4.438;2023-06-10T02:44:23;12.80;;;6.57;;
26080;SDS011;13991;51.174;4.438;2023-06-10T02:46:49;16.40;;;7.53;;
26080;SDS011;13991;51.174;4.438;2023-06-10T02:49:15;15.77;;;7.40;;
26080;SDS011;13991;51.174;4.438;2023-06-10T02:51:41;14.70;;;7.50;;
26080;SDS011;13991;51.174;4.438;2023-06-10T02:54:07;14.33;;;7.33;;
26080;SDS011;13991;51.174;4.438;2023-06-10T02:56:35;14.33;;;7.97;;
26080;SDS011;13991;51.174;4.438;2023-06-10T02:59:01;15.60;;;7.83;;
26080;SDS011;13991;51.174;4.438;2023-06-10T03:01:27;14.73;;;7.57;;
26080;SDS011;13991;51.174;4.438;2023-06-10T03:03:53;13.67;;;8.10;;
26080;SDS011;13991;51.174;4.438;2023-06-10T03:06:21;17.23;;;7.53;;
26080;SDS011;13991;51.174;4.438;2023-06-10T03:08:49;15.43;;;8.33;;
26080;SDS011;13991;51.174;4.438;2023-06-10T03:11:15;19.87;;;8.77;;
26080;SDS011;13991;51.174;4.438;2023-06-10T03:14:02;26.53;;;8.13;;
26080;SDS011;13991;51.174;4.438;2023-06-10T03:16:28;12.63;;;7.93;;
26080;SDS011;13991;51.174;4.438;2023-06-10T03:18:59;19.60;;;7.63;;
26080;SDS011;13991;51.174;4.438;2023-06-10T03:21:25;16.57;;;8.87;;
26080;SDS011;13991;51.174;4.438;2023-06-10T03:23:51;13.57;;;8.33;;
26080;SDS011;13991;51.174;4.438;2023-06-10T03:26:20;16.23;;;8.43;;
26080;SDS011;13991;51.174;4.438;2023-06-10T03:28:46;19.50;;;9.03;;
26080;SDS011;13991;51.174;4.438;2023-06-10T03:31:28;19.17;;;7.93;;
26080;SDS011;13991;51.174;4.438;2023-06-10T03:34:11;21.07;;;8.40;;
26080;SDS011;13991;51.174;4.438;2023-06-10T03:36:43;23.23;;;8.70;;
26080;SDS011;13991;51.174;4.438;2023-06-10T03:39:12;28.10;;;9.47;;
26080;SDS011;13991;51.174;4.438;2023-06-10T03:41:40;19.60;;;9.20;;
26080;SDS011;13991;51.174;4.438;2023-06-10T03:44:30;20.57;;;8.77;;
26080;SDS011;13991;51.174;4.438;2023-06-10T03:46:56;14.43;;;8.60;;
26080;SDS011;13991;51.174;4.438;2023-06-10T03:49:31;17.33;;;8.40;;
26080;SDS011;13991;51.174;4.438;2023-06-10T03:51:58;23.10;;;8.50;;
26080;SDS011;13991;51.174;4.438;2023-06-10T03:54:24;15.77;;;8.57;;
26080;SDS011;13991;51.174;4.438;2023-06-10T03:56:56;16.37;;;8.83;;
26080;SDS011;13991;51.174;4.438;2023-06-10T03:59:26;14.40;;;8.40;;
26080;SDS011;13991;51.174;4.438;2023-06-10T04:01:55;29.97;;;9.87;;
26080;SDS011;13991;51.174;4.438;2023-06-10T04:04:25;21.73;;;8.93;;
26080;SDS011;13991;51.174;4.438;2023-06-10T04:06:53;14.10;;;9.00;;
26080;SDS011;13991;51.174;4.438;2023-06-10T04:09:19;18.40;;;8.27;;
26080;SDS011;13991;51.174;4.438;2023-06-10T04:11:45;17.13;;;7.93;;
26080;SDS011;13991;51.174;4.438;2023-06-10T04:14:11;14.33;;;8.63;;
26080;SDS011;13991;51.174;4.438;2023-06-10T04:16:38;24.43;;;8.73;;
26080;SDS011;13991;51.174;4.438;2023-06-10T04:19:04;19.40;;;9.77;;
26080;SDS011;13991;51.174;4.438;2023-06-10T04:21:30;15.33;;;8.20;;
26080;SDS011;13991;51.174;4.438;2023-06-10T04:23:55;16.33;;;9.10;;
26080;SDS011;13991;51.174;4.438;2023-06-10T04:26:21;25.93;;;8.43;;
26080;SDS011;13991;51.174;4.438;2023-06-10T04:28:47;19.07;;;8.03;;
26080;SDS011;13991;51.174;4.438;2023-06-10T04:31:12;18.70;;;8.63;;
26080;SDS011;13991;51.174;4.438;2023-06-10T04:33:38;17.97;;;8.57;;
26080;SDS011;13991;51.174;4.438;2023-06-10T04:36:04;18.27;;;9.00;;
26080;SDS011;13991;51.174;4.438;2023-06-10T04:38:31;21.23;;;8.80;;
26080;SDS011;13991;51.174;4.438;2023-06-10T04:40:57;13.67;;;7.87;;
26080;SDS011;13991;51.174;4.438;2023-06-10T04:43:23;14.73;;;8.13;;
26080;SDS011;13991;51.174;4.438;2023-06-10T04:45:53;17.23;;;7.60;;
26080;SDS011;13991;51.174;4.438;2023-06-10T04:48:21;22.73;;;8.50;;
26080;SDS011;13991;51.174;4.438;2023-06-10T04:50:49;28.53;;;8.70;;
26080;SDS011;13991;51.174;4.438;2023-06-10T04:53:15;13.37;;;8.33;;
26080;SDS011;13991;51.174;4.438;2023-06-10T04:55:42;25.43;;;8.17;;
26080;SDS011;13991;51.174;4.438;2023-06-10T04:58:08;20.43;;;9.23;;
26080;SDS011;13991;51.174;4.438;2023-06-10T05:00:35;14.00;;;8.30;;
26080;SDS011;13991;51.174;4.438;2023-06-10T05:03:00;16.77;;;8.37;;
26080;SDS011;13991;51.174;4.438;2023-06-10T05:05:26;17.57;;;9.00;;
26080;SDS011;13991;51.174;4.438;2023-06-10T05:07:52;20.47;;;8.47;;
26080;SDS011;13991;51.174;4.438;2023-06-10T05:10:19;13.90;;;8.00;;
26080;SDS011;13991;51.174;4.438;2023-06-10T05:12:45;31.23;;;9.10;;
26080;SDS011;13991;51.174;4.438;2023-06-10T05:15:11;15.10;;;8.37;;
26080;SDS011;13991;51.174;4.438;2023-06-10T05:17:38;19.03;;;8.77;;
26080;SDS011;13991;51.174;4.438;2023-06-10T05:20:07;18.33;;;8.30;;
26080;SDS011;13991;51.174;4.438;2023-06-10T05:22:34;14.40;;;8.47;;
26080;SDS011;13991;51.174;4.438;2023-06-10T05:25:00;19.27;;;9.07;;
26080;SDS011;13991;51.174;4.438;2023-06-10T05:27:26;16.67;;;8.10;;
26080;SDS011;13991;51.174;4.438;2023-06-10T05:29:52;18.17;;;9.53;;
26080;SDS011;13991;51.174;4.438;2023-06-10T05:32:18;19.67;;;9.03;;
26080;SDS011;13991;51.174;4.438;2023-06-10T05:34:44;22.07;;;8.53;;
26080;SDS011;13991;51.174;4.438;2023-06-10T05:37:10;14.30;;;8.17;;
26080;SDS011;13991;51.174;4.438;2023-06-10T05:39:36;15.77;;;8.37;;
26080;SDS011;13991;51.174;4.438;2023-06-10T05:42:03;18.43;;;8.53;;
26080;SDS011;13991;51.174;4.438;2023-06-10T05:44:31;16.67;;;9.13;;
26080;SDS011;13991;51.174;4.438;2023-06-10T05:46:57;21.60;;;8.30;;
26080;SDS011;13991;51.174;4.438;2023-06-10T05:49:30;22.90;;;8.53;;
26080;SDS011;13991;51.174;4.438;2023-06-10T05:51:56;19.40;;;9.30;;
26080;SDS011;13991;51.174;4.438;2023-06-10T05:54:24;16.30;;;8.87;;
26080;SDS011;13991;51.174;4.438;2023-06-10T05:56:50;16.10;;;8.47;;
26080;SDS011;13991;51.174;4.438;2023-06-10T05:59:17;17.87;;;9.27;;
26080;SDS011;13991;51.174;4.438;2023-06-10T06:01:43;20.23;;;9.20;;
26080;SDS011;13991;51.174;4.438;2023-06-10T06:04:09;16.93;;;8.53;;
26080;SDS011;13991;51.174;4.438;2023-06-10T06:06:40;18.63;;;8.73;;
26080;SDS011;13991;51.174;4.438;2023-06-10T06:09:09;21.00;;;8.40;;
26080;SDS011;13991;51.174;4.438;2023-06-10T06:11:35;14.23;;;8.10;;
26080;SDS011;13991;51.174;4.438;2023-06-10T06:14:16;21.07;;;9.33;;
26080;SDS011;13991;51.174;4.438;2023-06-10T06:16:45;21.10;;;9.37;;
26080;SDS011;13991;51.174;4.438;2023-06-10T06:19:14;27.63;;;9.23;;
26080;SDS011;13991;51.174;4.438;2023-06-10T06:21:43;21.73;;;8.43;;
26080;SDS011;13991;51.174;4.438;2023-06-10T06:24:13;12.43;;;8.03;;
26080;SDS011;13991;51.174;4.438;2023-06-10T06:26:46;21.20;;;8.13;;
26080;SDS011;13991;51.174;4.438;2023-06-10T06:29:25;26.33;;;8.07;;
26080;SDS011;13991;51.174;4.438;2023-06-10T06:32:04;15.80;;;8.00;;
26080;SDS011;13991;51.174;4.438;2023-06-10T06:34:36;17.23;;;8.60;;
26080;SDS011;13991;51.174;4.438;2023-06-10T06:37:10;17.13;;;8.20;;
26080;SDS011;13991;51.174;4.438;2023-06-10T06:39:39;19.00;;;8.03;;
26080;SDS011;13991;51.174;4.438;2023-06-10T06:42:11;20.70;;;8.43;;
26080;SDS011;13991;51.174;4.438;2023-06-10T06:44:40;20.43;;;8.20;;
26080;SDS011;13991;51.174;4.438;2023-06-10T06:47:06;17.73;;;8.67;;
26080;SDS011;13991;51.174;4.438;2023-06-10T06:49:31;17.37;;;8.00;;
26080;SDS011;13991;51.174;4.438;2023-06-10T06:51:57;19.47;;;8.37;;
26080;SDS011;13991;51.174;4.438;2023-06-10T06:54:23;23.03;;;7.00;;
26080;SDS011;13991;51.174;4.438;2023-06-10T06:56:49;18.43;;;7.80;;
26080;SDS011;13991;51.174;4.438;2023-06-10T06:59:15;21.57;;;9.00;;
26080;SDS011;13991;51.174;4.438;2023-06-10T07:01:45;15.23;;;8.30;;
26080;SDS011;13991;51.174;4.438;2023-06-10T07:04:11;14.10;;;7.90;;
26080;SDS011;13991;51.174;4.438;2023-06-10T07:06:47;16.10;;;7.40;;
26080;SDS011;13991;51.174;4.438;2023-06-10T07:09:20;15.00;;;8.07;;
26080;SDS011;13991;51.174;4.438;2023-06-10T07:11:53;23.70;;;7.50;;
26080;SDS011;13991;51.174;4.438;2023-06-10T07:14:30;25.35;;;7.78;;
26080;SDS011;13991;51.174;4.438;2023-06-10T07:16:56;16.47;;;7.53;;
26080;SDS011;13991;51.174;4.438;2023-06-10T07:19:21;20.63;;;7.00;;
26080;SDS011;13991;51.174;4.438;2023-06-10T07:21:47;15.02;;;7.28;;
26080;SDS011;13991;51.174;4.438;2023-06-10T07:24:13;17.00;;;7.28;;
26080;SDS011;13991;51.174;4.438;2023-06-10T07:26:38;16.45;;;7.80;;
26080;SDS011;13991;51.174;4.438;2023-06-10T07:29:05;24.63;;;6.93;;
26080;SDS011;13991;51.174;4.438;2023-06-10T07:31:31;20.83;;;7.13;;
26080;SDS011;13991;51.174;4.438;2023-06-10T07:33:56;19.48;;;7.70;;
26080;SDS011;13991;51.174;4.438;2023-06-10T07:36:27;14.10;;;6.90;;
26080;SDS011;13991;51.174;4.438;2023-06-10T07:38:54;17.42;;;7.07;;
26080;SDS011;13991;51.174;4.438;2023-06-10T07:41:23;17.88;;;7.05;;
26080;SDS011;13991;51.174;4.438;2023-06-10T07:43:52;16.42;;;6.60;;
26080;SDS011;13991;51.174;4.438;2023-06-10T07:46:23;14.43;;;6.82;;
26080;SDS011;13991;51.174;4.438;2023-06-10T07:48:53;23.90;;;7.68;;
26080;SDS011;13991;51.174;4.438;2023-06-10T07:51:22;19.27;;;6.93;;
26080;SDS011;13991;51.174;4.438;2023-06-10T07:54:11;29.65;;;6.97;;
26080;SDS011;13991;51.174;4.438;2023-06-10T07:56:39;12.77;;;6.63;;
26080;SDS011;13991;51.174;4.438;2023-06-10T07:59:05;11.02;;;6.57;;
26080;SDS011;13991;51.174;4.438;2023-06-10T08:01:30;21.25;;;6.78;;
26080;SDS011;13991;51.174;4.438;2023-06-10T08:03:58;17.33;;;6.70;;
26080;SDS011;13991;51.174;4.438;2023-06-10T08:06:24;17.38;;;6.45;;
26080;SDS011;13991;51.174;4.438;2023-06-10T08:08:49;11.30;;;6.00;;
26080;SDS011;13991;51.174;4.438;2023-06-10T08:11:18;13.68;;;6.90;;
26080;SDS011;13991;51.174;4.438;2023-06-10T08:13:52;11.88;;;5.10;;
26080;SDS011;13991;51.174;4.438;2023-06-10T08:16:27;15.07;;;5.97;;
26080;SDS011;13991;51.174;4.438;2023-06-10T08:18:53;9.52;;;5.65;;
26080;SDS011;13991;51.174;4.438;2023-06-10T08:21:19;10.35;;;5.82;;
26080;SDS011;13991;51.174;4.438;2023-06-10T08:23:45;25.92;;;6.35;;
26080;SDS011;13991;51.174;4.438;2023-06-10T08:26:13;9.95;;;5.63;;
26080;SDS011;13991;51.174;4.438;2023-06-10T08:28:39;13.95;;;6.50;;
26080;SDS011;13991;51.174;4.438;2023-06-10T08:31:08;10.07;;;5.60;;
26080;SDS011;13991;51.174;4.438;2023-06-10T08:33:49;9.52;;;5.32;;
26080;SDS011;13991;51.174;4.438;2023-06-10T08:36:15;16.08;;;5.43;;
26080;SDS011;13991;51.174;4.438;2023-06-10T08:38:41;9.65;;;5.43;;
26080;SDS011;13991;51.174;4.438;2023-06-10T08:41:22;9.98;;;5.13;;
26080;SDS011;13991;51.174;4.438;2023-06-10T08:44:03;12.73;;;5.15;;
26080;SDS011;13991;51.174;4.438;2023-06-10T08:46:39;10.85;;;5.28;;
26080;SDS011;13991;51.174;4.438;2023-06-10T08:49:18;14.57;;;5.47;;
26080;SDS011;13991;51.174;4.438;2023-06-10T08:52:00;19.27;;;5.22;;
26080;SDS011;13991;51.174;4.438;2023-06-10T08:54:32;10.80;;;4.68;;
26080;SDS011;13991;51.174;4.438;2023-06-10T08:57:06;12.45;;;4.55;;
26080;SDS011;13991;51.174;4.438;2023-06-10T08:59:36;16.02;;;4.68;;
26080;SDS011;13991;51.174;4.438;2023-06-10T09:02:11;7.40;;;4.35;;
26080;SDS011;13991;51.174;4.438;2023-06-10T09:04:58;11.00;;;5.57;;
26080;SDS011;13991;51.174;4.438;2023-06-10T09:07:46;8.75;;;4.60;;
26080;SDS011;13991;51.174;4.438;2023-06-10T09:10:19;16.73;;;6.05;;
26080;SDS011;13991;51.174;4.438;2023-06-10T09:12:51;14.23;;;5.95;;
26080;SDS011;13991;51.174;4.438;2023-06-10T09:15:22;16.80;;;6.00;;
26080;SDS011;13991;51.174;4.438;2023-06-10T09:18:01;16.63;;;5.70;;
26080;SDS011;13991;51.174;4.438;2023-06-10T09:20:27;12.25;;;5.80;;
26080;SDS011;13991;51.174;4.438;2023-06-10T09:23:22;14.82;;;6.28;;
26080;SDS011;13991;51.174;4.438;2023-06-10T09:25:58;13.13;;;5.90;;
26080;SDS011;13991;51.174;4.438;2023-06-10T09:28:24;10.30;;;5.15;;
26080;SDS011;13991;51.174;4.438;2023-06-10T09:31:03;16.65;;;5.53;;
26080;SDS011;13991;51.174;4.438;2023-06-10T09:33:33;10.70;;;5.93;;
26080;SDS011;13991;51.174;4.438;2023-06-10T09:36:09;16.10;;;5.18;;
26080;SDS011;13991;51.174;4.438;2023-06-10T09:38:38;10.43;;;5.47;;
26080;SDS011;13991;51.174;4.438;2023-06-10T09:41:04;13.23;;;5.85;;
26080;SDS011;13991;51.174;4.438;2023-06-10T09:43:45;13.75;;;5.15;;
26080;SDS011;13991;51.174;4.438;2023-06-10T09:46:20;13.68;;;5.40;;
26080;SDS011;13991;51.174;4.438;2023-06-10T09:48:49;15.13;;;5.30;;
26080;SDS011;13991;51.174;4.438;2023-06-10T09:51:24;12.10;;;5.45;;
26080;SDS011;13991;51.174;4.438;2023-06-10T09:53:53;8.98;;;5.30;;
26080;SDS011;13991;51.174;4.438;2023-06-10T09:56:19;11.80;;;5.20;;
26080;SDS011;13991;51.174;4.438;2023-06-10T09:58:49;9.57;;;5.18;;
26080;SDS011;13991;51.174;4.438;2023-06-10T10:01:21;18.52;;;5.57;;
26080;SDS011;13991;51.174;4.438;2023-06-10T10:03:51;10.40;;;5.55;;
26080;SDS011;13991;51.174;4.438;2023-06-10T10:06:23;11.70;;;4.97;;
26080;SDS011;13991;51.174;4.438;2023-06-10T10:08:58;8.10;;;5.13;;
26080;SDS011;13991;51.174;4.438;2023-06-10T10:11:29;11.23;;;5.18;;
26080;SDS011;13991;51.174;4.438;2023-06-10T10:13:56;13.45;;;5.10;;
26080;SDS011;13991;51.174;4.438;2023-06-10T10:16:41;11.30;;;4.90;;
26080;SDS011;13991;51.174;4.438;2023-06-10T10:19:08;9.77;;;4.70;;
26080;SDS011;13991;51.174;4.438;2023-06-10T10:21:56;13.05;;;4.80;;
26080;SDS011;13991;51.174;4.438;2023-06-10T10:31:14;11.95;;;4.20;;
26080;SDS011;13991;51.174;4.438;2023-06-10T10:33:59;14.75;;;4.72;;
26080;SDS011;13991;51.174;4.438;2023-06-10T10:36:27;13.07;;;4.50;;
26080;SDS011;13991;51.174;4.438;2023-06-10T10:38:54;12.75;;;4.50;;
26080;SDS011;13991;51.174;4.438;2023-06-10T10:41:30;9.95;;;4.32;;
26080;SDS011;13991;51.174;4.438;2023-06-10T10:44:06;12.45;;;4.85;;
26080;SDS011;13991;51.174;4.438;2023-06-10T10:46:42;9.18;;;4.70;;
26080;SDS011;13991;51.174;4.438;2023-06-10T10:49:13;8.98;;;4.10;;
26080;SDS011;13991;51.174;4.438;2023-06-10T10:51:54;7.60;;;4.13;;
26080;SDS011;13991;51.174;4.438;2023-06-10T10:54:48;11.00;;;4.53;;
26080;SDS011;13991;51.174;4.438;2023-06-10T10:57:16;12.70;;;4.40;;
26080;SDS011;13991;51.174;4.438;2023-06-10T11:05:14;14.73;;;4.63;;
26080;SDS011;13991;51.174;4.438;2023-06-10T11:07:56;7.43;;;4.63;;
26080;SDS011;13991;51.174;4.438;2023-06-10T11:13:15;12.60;;;4.63;;
26080;SDS011;13991;51.174;4.438;2023-06-10T11:15:48;11.48;;;4.82;;
26080;SDS011;13991;51.174;4.438;2023-06-10T11:18:24;15.93;;;4.00;;
26080;SDS011;13991;51.174;4.438;2023-06-10T11:21:10;17.10;;;4.85;;
26080;SDS011;13991;51.174;4.438;2023-06-10T11:23:40;8.20;;;4.57;;
26080;SDS011;13991;51.174;4.438;2023-06-10T11:26:17;5.40;;;4.03;;
26080;SDS011;13991;51.174;4.438;2023-06-10T11:31:31;11.57;;;4.75;;
26080;SDS011;13991;51.174;4.438;2023-06-10T11:34:05;9.95;;;4.88;;
26080;SDS011;13991;51.174;4.438;2023-06-10T11:36:33;11.25;;;4.80;;
26080;SDS011;13991;51.174;4.438;2023-06-10T11:39:02;8.05;;;4.32;;
26080;SDS011;13991;51.174;4.438;2023-06-10T11:41:35;14.45;;;4.82;;
26080;SDS011;13991;51.174;4.438;2023-06-10T11:44:18;10.43;;;3.67;;
26080;SDS011;13991;51.174;4.438;2023-06-10T11:47:02;11.38;;;4.53;;
26080;SDS011;13991;51.174;4.438;2023-06-10T11:49:42;17.20;;;4.88;;
26080;SDS011;13991;51.174;4.438;2023-06-10T11:52:17;12.38;;;4.78;;
26080;SDS011;13991;51.174;4.438;2023-06-10T11:55:00;7.68;;;4.95;;
26080;SDS011;13991;51.174;4.438;2023-06-10T11:57:26;14.73;;;5.25;;
26080;SDS011;13991;51.174;4.438;2023-06-10T12:00:07;10.32;;;4.55;;
26080;SDS011;13991;51.174;4.438;2023-06-10T12:02:36;7.45;;;4.90;;
26080;SDS011;13991;51.174;4.438;2023-06-10T12:13:59;13.32;;;5.00;;
26080;SDS011;13991;51.174;4.438;2023-06-10T12:16:25;8.85;;;4.50;;
26080;SDS011;13991;51.174;4.438;2023-06-10T12:18:51;14.60;;;4.93;;
26080;SDS011;13991;51.174;4.438;2023-06-10T12:21:33;7.40;;;4.20;;
26080;SDS011;13991;51.174;4.438;2023-06-10T12:29:24;8.15;;;3.95;;
26080;SDS011;13991;51.174;4.438;2023-06-10T12:32:00;9.25;;;5.07;;
26080;SDS011;13991;51.174;4.438;2023-06-10T12:37:01;9.00;;;4.90;;
26080;SDS011;13991;51.174;4.438;2023-06-10T12:39:42;9.27;;;4.20;;
26080;SDS011;13991;51.174;4.438;2023-06-10T12:42:18;12.45;;;4.43;;
26080;SDS011;13991;51.174;4.438;2023-06-10T12:44:53;7.15;;;4.13;;
26080;SDS011;13991;51.174;4.438;2023-06-10T12:47:21;13.60;;;4.38;;
26080;SDS011;13991;51.174;4.438;2023-06-10T12:50:02;6.38;;;4.47;;
26080;SDS011;13991;51.174;4.438;2023-06-10T12:52:37;11.82;;;4.68;;
26080;SDS011;13991;51.174;4.438;2023-06-10T12:55:03;7.95;;;4.70;;
26080;SDS011;13991;51.174;4.438;2023-06-10T12:57:47;6.57;;;4.03;;
26080;SDS011;13991;51.174;4.438;2023-06-10T13:00:13;7.85;;;4.78;;
26080;SDS011;13991;51.174;4.438;2023-06-10T13:02:45;8.10;;;4.22;;
26080;SDS011;13991;51.174;4.438;2023-06-10T13:05:13;8.93;;;4.07;;
26080;SDS011;13991;51.174;4.438;2023-06-10T13:07:58;10.48;;;4.03;;
26080;SDS011;13991;51.174;4.438;2023-06-10T13:10:30;9.60;;;4.03;;
26080;SDS011;13991;51.174;4.438;2023-06-10T13:13:20;9.10;;;3.97;;
26080;SDS011;13991;51.174;4.438;2023-06-10T13:15:48;13.52;;;4.60;;
26080;SDS011;13991;51.174;4.438;2023-06-10T13:18:21;10.80;;;4.28;;
26080;SDS011;13991;51.174;4.438;2023-06-10T13:20:56;8.48;;;4.65;;
26080;SDS011;13991;51.174;4.438;2023-06-10T13:23:21;14.15;;;4.43;;
26080;SDS011;13991;51.174;4.438;2023-06-10T13:25:59;6.32;;;3.97;;
26080;SDS011;13991;51.174;4.438;2023-06-10T13:28:28;8.95;;;4.32;;
26080;SDS011;13991;51.174;4.438;2023-06-10T13:30:56;7.47;;;4.13;;
26080;SDS011;13991;51.174;4.438;2023-06-10T13:33:32;17.38;;;4.53;;
26080;SDS011;13991;51.174;4.438;2023-06-10T13:35:58;11.20;;;4.50;;
26080;SDS011;13991;51.174;4.438;2023-06-10T13:38:24;14.02;;;4.78;;
26080;SDS011;13991;51.174;4.438;2023-06-10T13:40:50;8.40;;;4.75;;
26080;SDS011;13991;51.174;4.438;2023-06-10T13:43:35;10.05;;;4.28;;
26080;SDS011;13991;51.174;4.438;2023-06-10T13:46:12;17.75;;;5.43;;
26080;SDS011;13991;51.174;4.438;2023-06-10T13:48:47;6.13;;;3.90;;
26080;SDS011;13991;51.174;4.438;2023-06-10T13:51:33;9.80;;;3.97;;
26080;SDS011;13991;51.174;4.438;2023-06-10T13:54:02;21.70;;;4.55;;
26080;SDS011;13991;51.174;4.438;2023-06-10T13:56:28;14.45;;;5.18;;
26080;SDS011;13991;51.174;4.438;2023-06-10T13:58:53;6.30;;;4.38;;
26080;SDS011;13991;51.174;4.438;2023-06-10T14:01:26;14.45;;;4.47;;
26080;SDS011;13991;51.174;4.438;2023-06-10T14:04:02;12.68;;;4.70;;
26080;SDS011;13991;51.174;4.438;2023-06-10T14:06:32;13.02;;;4.22;;
26080;SDS011;13991;51.174;4.438;2023-06-10T14:09:13;8.27;;;3.75;;
26080;SDS011;13991;51.174;4.438;2023-06-10T14:12:06;8.40;;;4.53;;
26080;SDS011;13991;51.174;4.438;2023-06-10T14:15:01;6.88;;;4.38;;
26080;SDS011;13991;51.174;4.438;2023-06-10T14:17:28;10.15;;;3.92;;
26080;SDS011;13991;51.174;4.438;2023-06-10T14:20:04;6.95;;;3.78;;
26080;SDS011;13991;51.174;4.438;2023-06-10T14:22:36;9.20;;;4.40;;
26080;SDS011;13991;51.174;4.438;2023-06-10T14:25:12;12.20;;;4.32;;
26080;SDS011;13991;51.174;4.438;2023-06-10T14:27:56;14.73;;;4.32;;
26080;SDS011;13991;51.174;4.438;2023-06-10T14:30:23;14.60;;;4.72;;
26080;SDS011;13991;51.174;4.438;2023-06-10T14:33:03;27.20;;;4.10;;
26080;SDS011;13991;51.174;4.438;2023-06-10T14:41:29;6.88;;;4.57;;
26080;SDS011;13991;51.174;4.438;2023-06-10T14:44:12;9.98;;;4.43;;
26080;SDS011;13991;51.174;4.438;2023-06-10T14:46:38;6.80;;;3.92;;
26080;SDS011;13991;51.174;4.438;2023-06-10T14:49:11;6.50;;;4.05;;
26080;SDS011;13991;51.174;4.438;2023-06-10T14:51:39;13.93;;;4.65;;
26080;SDS011;13991;51.174;4.438;2023-06-10T14:54:05;11.73;;;4.88;;
26080;SDS011;13991;51.174;4.438;2023-06-10T14:56:31;9.35;;;4.55;;
26080;SDS011;13991;51.174;4.438;2023-06-10T14:59:02;8.10;;;4.45;;
26080;SDS011;13991;51.174;4.438;2023-06-10T15:01:28;5.28;;;3.80;;
26080;SDS011;13991;51.174;4.438;2023-06-10T15:03:57;6.50;;;4.32;;
26080;SDS011;13991;51.174;4.438;2023-06-10T15:06:23;9.05;;;4.47;;
26080;SDS011;13991;51.174;4.438;2023-06-10T15:08:48;11.00;;;3.78;;
26080;SDS011;13991;51.174;4.438;2023-06-10T15:11:17;8.63;;;3.90;;
26080;SDS011;13991;51.174;4.438;2023-06-10T15:13:46;9.60;;;3.97;;
26080;SDS011;13991;51.174;4.438;2023-06-10T15:16:19;17.58;;;4.15;;
26080;SDS011;13991;51.174;4.438;2023-06-10T15:18:50;7.80;;;3.75;;
26080;SDS011;13991;51.174;4.438;2023-06-10T15:21:22;7.35;;;4.00;;
26080;SDS011;13991;51.174;4.438;2023-06-10T15:23:54;9.35;;;4.22;;
26080;SDS011;13991;51.174;4.438;2023-06-10T15:26:23;12.13;;;4.20;;
26080;SDS011;13991;51.174;4.438;2023-06-10T15:29:12;12.88;;;4.50;;
26080;SDS011;13991;51.174;4.438;2023-06-10T15:34:37;13.82;;;4.43;;
26080;SDS011;13991;51.174;4.438;2023-06-10T15:37:21;10.90;;;3.90;;
26080;SDS011;13991;51.174;4.438;2023-06-10T15:39:50;6.28;;;3.80;;
26080;SDS011;13991;51.174;4.438;2023-06-10T15:42:22;9.00;;;3.88;;
26080;SDS011;13991;51.174;4.438;2023-06-10T15:45:04;6.30;;;3.70;;
26080;SDS011;13991;51.174;4.438;2023-06-10T15:47:31;7.50;;;2.90;;
26080;SDS011;13991;51.174;4.438;2023-06-10T15:49:58;10.35;;;3.65;;